sensor_id;sensor_type;location;lat;lon;timestamp;temperature;humidity
21627;DHT22;10975;47.872;12.972;2022-11-27T00:00:44;1.70;99.90
21627;DHT22;10975;47.872;12.972;2022-11-27T00:03:11;1.70;99.90
21627;DHT22;10975;47.872;12.972;2022-11-27T00:05:39;1.70;99.90
21627;DHT22;10975;47.872;12.972;2022-11-27T00:08:06;1.70;99.90
21627;DHT22;10975;47.872;12.972;2022-11-27T00:10:35;1.70;99.90
21627;DHT22;10975;47.872;12.972;2022-11-27T00:13:01;1.80;99.90
21627;DHT22;10975;47.872;12.972;2022-11-27T00:15:28;1.80;99.90
21627;DHT22;10975;47.872;12.972;2022-11-27T00:17:55;1.80;99.90
21627;DHT22;10975;47.872;12.972;2022-11-27T00:20:22;1.70;99.90
21627;DHT22;10975;47.872;12.972;2022-11-27T00:22:56;1.70;99.90
21627;DHT22;10975;47.872;12.972;2022-11-27T00:25:23;1.60;99.90
21627;DHT22;10975;47.872;12.972;2022-11-27T00:27:50;1.50;99.90
21627;DHT22;10975;47.872;12.972;2022-11-27T00:30:17;1.50;99.90
21627;DHT22;10975;47.872;12.972;2022-11-27T00:32:44;1.50;99.90
21627;DHT22;10975;47.872;12.972;2022-11-27T00:35:10;1.50;99.90
21627;DHT22;10975;47.872;12.972;2022-11-27T00:37:44;1.60;99.90
21627;DHT22;10975;47.872;12.972;2022-11-27T00:40:11;1.60;99.90
21627;DHT22;10975;47.872;12.972;2022-11-27T00:42:38;1.60;99.90
21627;DHT22;10975;47.872;12.972;2022-11-27T00:45:05;1.70;99.90
21627;DHT22;10975;47.872;12.972;2022-11-27T00:47:31;1.60;99.90
21627;DHT22;10975;47.872;12.972;2022-11-27T00:49:58;1.50;99.90
21627;DHT22;10975;47.872;12.972;2022-11-27T00:52:25;1.50;99.90
21627;DHT22;10975;47.872;12.972;2022-11-27T00:54:51;1.60;99.90
21627;DHT22;10975;47.872;12.972;2022-11-27T00:57:18;1.60;99.90
21627;DHT22;10975;47.872;12.972;2022-11-27T00:59:45;1.60;99.90
21627;DHT22;10975;47.872;12.972;2022-11-27T01:02:11;1.70;99.90
21627;DHT22;10975;47.872;12.972;2022-11-27T01:04:38;1.70;99.90
21627;DHT22;10975;47.872;12.972;2022-11-27T01:07:05;1.70;99.90
21627;DHT22;10975;47.872;12.972;2022-11-27T01:09:32;1.70;99.90
21627;DHT22;10975;47.872;12.972;2022-11-27T01:11:59;1.70;99.90
21627;DHT22;10975;47.872;12.972;2022-11-27T01:14:25;1.60;99.90
21627;DHT22;10975;47.872;12.972;2022-11-27T01:16:52;1.60;99.90
21627;DHT22;10975;47.872;12.972;2022-11-27T01:19:19;1.60;99.90
21627;DHT22;10975;47.872;12.972;2022-11-27T01:21:45;1.60;99.90
21627;DHT22;10975;47.872;12.972;2022-11-27T01:24:13;1.60;99.90
21627;DHT22;10975;47.872;12.972;2022-11-27T01:26:40;1.50;99.90
21627;DHT22;10975;47.872;12.972;2022-11-27T01:29:09;1.50;99.90
21627;DHT22;10975;47.872;12.972;2022-11-27T01:31:35;1.40;99.90
21627;DHT22;10975;47.872;12.972;2022-11-27T01:34:04;1.40;99.90
21627;DHT22;10975;47.872;12.972;2022-11-27T01:36:31;1.40;99.90
21627;DHT22;10975;47.872;12.972;2022-11-27T01:38:58;1.40;99.90
21627;DHT22;10975;47.872;12.972;2022-11-27T01:41:26;1.40;99.90
21627;DHT22;10975;47.872;12.972;2022-11-27T01:51:35;1.30;99.90
21627;DHT22;10975;47.872;12.972;2022-11-27T01:54:02;1.30;99.90
21627;DHT22;10975;47.872;12.972;2022-11-27T01:56:29;1.20;99.90
21627;DHT22;10975;47.872;12.972;2022-11-27T01:58:56;1.20;99.90
21627;DHT22;10975;47.872;12.972;2022-11-27T02:01:25;1.20;99.90
21627;DHT22;10975;47.872;12.972;2022-11-27T02:03:52;1.20;99.90
21627;DHT22;10975;47.872;12.972;2022-11-27T02:06:20;1.20;99.90
21627;DHT22;10975;47.872;12.972;2022-11-27T02:08:46;1.10;99.90
21627;DHT22;10975;47.872;12.972;2022-11-27T02:12:01;1.10;99.90
21627;DHT22;10975;47.872;12.972;2022-11-27T02:16:30;1.10;99.90
21627;DHT22;10975;47.872;12.972;2022-11-27T02:19:06;1.10;99.90
21627;DHT22;10975;47.872;12.972;2022-11-27T02:21:52;1.00;99.90
21627;DHT22;10975;47.872;12.972;2022-11-27T02:26:57;0.90;99.90
21627;DHT22;10975;47.872;12.972;2022-11-27T02:29:27;0.90;99.90
21627;DHT22;10975;47.872;12.972;2022-11-27T02:31:56;0.90;99.90
21627;DHT22;10975;47.872;12.972;2022-11-27T02:34:26;1.00;99.90
21627;DHT22;10975;47.872;12.972;2022-11-27T02:36:56;0.90;99.90
21627;DHT22;10975;47.872;12.972;2022-11-27T02:39:26;0.90;99.90
21627;DHT22;10975;47.872;12.972;2022-11-27T02:42:00;0.90;99.90
21627;DHT22;10975;47.872;12.972;2022-11-27T02:44:30;0.90;99.90
21627;DHT22;10975;47.872;12.972;2022-11-27T02:46:59;0.90;99.90
21627;DHT22;10975;47.872;12.972;2022-11-27T02:49:26;0.80;99.90
21627;DHT22;10975;47.872;12.972;2022-11-27T02:51:54;0.80;99.90
21627;DHT22;10975;47.872;12.972;2022-11-27T02:54:29;0.70;99.90
21627;DHT22;10975;47.872;12.972;2022-11-27T02:56:57;0.60;99.90
21627;DHT22;10975;47.872;12.972;2022-11-27T02:59:25;0.60;99.90
21627;DHT22;10975;47.872;12.972;2022-11-27T03:01:54;0.60;99.90
21627;DHT22;10975;47.872;12.972;2022-11-27T03:04:23;0.60;99.90
21627;DHT22;10975;47.872;12.972;2022-11-27T03:06:53;0.60;99.90
21627;DHT22;10975;47.872;12.972;2022-11-27T03:09:22;0.60;99.90
21627;DHT22;10975;47.872;12.972;2022-11-27T03:11:49;0.60;99.90
21627;DHT22;10975;47.872;12.972;2022-11-27T03:14:16;0.50;99.90
21627;DHT22;10975;47.872;12.972;2022-11-27T03:21:47;0.50;99.90
21627;DHT22;10975;47.872;12.972;2022-11-27T03:24:14;0.50;99.90
21627;DHT22;10975;47.872;12.972;2022-11-27T03:26:41;0.50;99.90
21627;DHT22;10975;47.872;12.972;2022-11-27T03:29:13;0.40;99.90
21627;DHT22;10975;47.872;12.972;2022-11-27T03:31:40;0.40;99.90
21627;DHT22;10975;47.872;12.972;2022-11-27T03:34:07;0.30;99.90
21627;DHT22;10975;47.872;12.972;2022-11-27T03:36:45;0.30;99.90
21627;DHT22;10975;47.872;12.972;2022-11-27T03:39:11;0.30;99.90
21627;DHT22;10975;47.872;12.972;2022-11-27T03:49:36;0.20;99.90
21627;DHT22;10975;47.872;12.972;2022-11-27T03:52:11;0.20;99.90
21627;DHT22;10975;47.872;12.972;2022-11-27T03:57:34;0.10;99.90
21627;DHT22;10975;47.872;12.972;2022-11-27T04:00:04;0.10;99.90
21627;DHT22;10975;47.872;12.972;2022-11-27T04:02:42;0.10;99.90
21627;DHT22;10975;47.872;12.972;2022-11-27T04:05:09;0.10;99.90
21627;DHT22;10975;47.872;12.972;2022-11-27T04:07:36;0.10;99.90
21627;DHT22;10975;47.872;12.972;2022-11-27T04:10:03;0.10;99.90
21627;DHT22;10975;47.872;12.972;2022-11-27T04:12:30;0.10;99.90
21627;DHT22;10975;47.872;12.972;2022-11-27T04:14:57;0.10;99.90
21627;DHT22;10975;47.872;12.972;2022-11-27T04:17:23;0.10;99.90
21627;DHT22;10975;47.872;12.972;2022-11-27T04:19:50;0.10;99.90
21627;DHT22;10975;47.872;12.972;2022-11-27T04:22:17;0.00;99.90
21627;DHT22;10975;47.872;12.972;2022-11-27T04:24:44;0.00;99.90
21627;DHT22;10975;47.872;12.972;2022-11-27T04:27:10;0.00;99.90
21627;DHT22;10975;47.872;12.972;2022-11-27T04:29:37;0.00;99.90
21627;DHT22;10975;47.872;12.972;2022-11-27T04:32:04;-0.10;99.90
21627;DHT22;10975;47.872;12.972;2022-11-27T04:34:31;-0.10;99.90
21627;DHT22;10975;47.872;12.972;2022-11-27T04:36:58;-0.20;99.90
21627;DHT22;10975;47.872;12.972;2022-11-27T04:39:24;-0.20;99.90
21627;DHT22;10975;47.872;12.972;2022-11-27T04:41:51;-0.30;99.90
21627;DHT22;10975;47.872;12.972;2022-11-27T04:44:18;-0.30;99.90
21627;DHT22;10975;47.872;12.972;2022-11-27T04:46:45;-0.20;99.90
21627;DHT22;10975;47.872;12.972;2022-11-27T04:49:11;-0.20;99.90
21627;DHT22;10975;47.872;12.972;2022-11-27T04:51:38;-0.30;99.90
21627;DHT22;10975;47.872;12.972;2022-11-27T04:54:05;-0.30;99.90
21627;DHT22;10975;47.872;12.972;2022-11-27T04:56:32;-0.30;99.90
21627;DHT22;10975;47.872;12.972;2022-11-27T04:58:58;-0.30;99.90
21627;DHT22;10975;47.872;12.972;2022-11-27T05:01:25;-0.30;99.90
21627;DHT22;10975;47.872;12.972;2022-11-27T05:03:52;-0.30;99.90
21627;DHT22;10975;47.872;12.972;2022-11-27T05:06:19;-0.30;99.90
21627;DHT22;10975;47.872;12.972;2022-11-27T05:08:48;-0.30;99.90
21627;DHT22;10975;47.872;12.972;2022-11-27T05:11:15;-0.30;99.90
21627;DHT22;10975;47.872;12.972;2022-11-27T05:13:42;-0.40;99.90
21627;DHT22;10975;47.872;12.972;2022-11-27T05:16:09;-0.40;99.90
21627;DHT22;10975;47.872;12.972;2022-11-27T05:18:36;-0.50;99.90
21627;DHT22;10975;47.872;12.972;2022-11-27T05:21:04;-0.50;99.90
21627;DHT22;10975;47.872;12.972;2022-11-27T05:23:31;-0.50;99.90
21627;DHT22;10975;47.872;12.972;2022-11-27T05:25:58;-0.50;99.90
21627;DHT22;10975;47.872;12.972;2022-11-27T05:28:25;-0.50;99.90
21627;DHT22;10975;47.872;12.972;2022-11-27T05:30:52;-0.50;99.90
21627;DHT22;10975;47.872;12.972;2022-11-27T05:33:19;-0.50;99.90
21627;DHT22;10975;47.872;12.972;2022-11-27T05:35:46;-0.60;99.90
21627;DHT22;10975;47.872;12.972;2022-11-27T05:38:13;-0.60;99.90
21627;DHT22;10975;47.872;12.972;2022-11-27T05:40:40;-0.60;99.90
21627;DHT22;10975;47.872;12.972;2022-11-27T05:43:07;-0.80;99.90
21627;DHT22;10975;47.872;12.972;2022-11-27T05:45:35;-0.80;99.90
21627;DHT22;10975;47.872;12.972;2022-11-27T05:48:02;-0.70;99.90
21627;DHT22;10975;47.872;12.972;2022-11-27T05:50:29;-0.70;99.90
21627;DHT22;10975;47.872;12.972;2022-11-27T05:52:55;-0.80;99.90
21627;DHT22;10975;47.872;12.972;2022-11-27T05:55:22;-0.80;99.90
21627;DHT22;10975;47.872;12.972;2022-11-27T05:57:48;-0.80;99.90
21627;DHT22;10975;47.872;12.972;2022-11-27T06:00:15;-0.80;99.90
21627;DHT22;10975;47.872;12.972;2022-11-27T06:02:42;-0.80;99.90
21627;DHT22;10975;47.872;12.972;2022-11-27T06:05:09;-0.80;99.90
21627;DHT22;10975;47.872;12.972;2022-11-27T06:07:35;-0.80;99.90
21627;DHT22;10975;47.872;12.972;2022-11-27T06:10:02;-0.80;99.90
21627;DHT22;10975;47.872;12.972;2022-11-27T06:12:30;-0.80;99.90
21627;DHT22;10975;47.872;12.972;2022-11-27T06:14:56;-0.70;99.90
21627;DHT22;10975;47.872;12.972;2022-11-27T06:17:23;-0.70;99.90
21627;DHT22;10975;47.872;12.972;2022-11-27T06:19:50;-0.70;99.90
21627;DHT22;10975;47.872;12.972;2022-11-27T06:22:17;-0.70;99.90
21627;DHT22;10975;47.872;12.972;2022-11-27T06:24:43;-0.70;99.90
21627;DHT22;10975;47.872;12.972;2022-11-27T06:27:10;-0.60;99.90
21627;DHT22;10975;47.872;12.972;2022-11-27T06:29:37;-0.60;99.90
21627;DHT22;10975;47.872;12.972;2022-11-27T06:32:03;-0.60;99.90
21627;DHT22;10975;47.872;12.972;2022-11-27T06:34:30;-0.50;99.90
21627;DHT22;10975;47.872;12.972;2022-11-27T06:36:57;-0.50;99.90
21627;DHT22;10975;47.872;12.972;2022-11-27T06:39:24;-0.40;99.90
21627;DHT22;10975;47.872;12.972;2022-11-27T06:41:51;-0.30;99.90
21627;DHT22;10975;47.872;12.972;2022-11-27T06:44:17;-0.30;99.90
21627;DHT22;10975;47.872;12.972;2022-11-27T06:46:44;-0.20;99.90
21627;DHT22;10975;47.872;12.972;2022-11-27T06:49:11;-0.20;99.90
21627;DHT22;10975;47.872;12.972;2022-11-27T06:51:37;-0.10;99.90
21627;DHT22;10975;47.872;12.972;2022-11-27T06:54:04;-0.10;99.90
21627;DHT22;10975;47.872;12.972;2022-11-27T06:56:31;-0.10;99.90
21627;DHT22;10975;47.872;12.972;2022-11-27T06:58:59;0.00;99.90
21627;DHT22;10975;47.872;12.972;2022-11-27T07:01:26;0.00;99.90
21627;DHT22;10975;47.872;12.972;2022-11-27T07:03:54;-0.10;99.90
21627;DHT22;10975;47.872;12.972;2022-11-27T07:06:21;0.00;99.90
21627;DHT22;10975;47.872;12.972;2022-11-27T07:08:49;0.00;99.90
21627;DHT22;10975;47.872;12.972;2022-11-27T07:11:16;0.10;99.90
21627;DHT22;10975;47.872;12.972;2022-11-27T07:13:44;0.10;99.90
21627;DHT22;10975;47.872;12.972;2022-11-27T07:16:11;0.20;99.90
21627;DHT22;10975;47.872;12.972;2022-11-27T07:18:40;0.20;99.90
21627;DHT22;10975;47.872;12.972;2022-11-27T07:21:07;0.20;99.90
21627;DHT22;10975;47.872;12.972;2022-11-27T07:23:34;0.20;99.90
21627;DHT22;10975;47.872;12.972;2022-11-27T07:26:05;0.30;99.90
21627;DHT22;10975;47.872;12.972;2022-11-27T07:28:31;0.40;99.90
21627;DHT22;10975;47.872;12.972;2022-11-27T07:30:58;0.40;99.90
21627;DHT22;10975;47.872;12.972;2022-11-27T07:33:25;0.40;99.90
21627;DHT22;10975;47.872;12.972;2022-11-27T07:36:05;0.50;99.90
21627;DHT22;10975;47.872;12.972;2022-11-27T07:38:32;0.60;99.90
21627;DHT22;10975;47.872;12.972;2022-11-27T07:40:59;0.60;99.90
21627;DHT22;10975;47.872;12.972;2022-11-27T07:43:27;0.70;99.90
21627;DHT22;10975;47.872;12.972;2022-11-27T07:45:54;0.70;99.90
21627;DHT22;10975;47.872;12.972;2022-11-27T07:48:21;0.70;99.90
21627;DHT22;10975;47.872;12.972;2022-11-27T07:50:47;0.80;99.90
21627;DHT22;10975;47.872;12.972;2022-11-27T07:53:15;0.80;99.90
21627;DHT22;10975;47.872;12.972;2022-11-27T07:55:42;0.80;99.90
21627;DHT22;10975;47.872;12.972;2022-11-27T07:58:08;0.70;99.90
21627;DHT22;10975;47.872;12.972;2022-11-27T08:00:35;0.70;99.90
21627;DHT22;10975;47.872;12.972;2022-11-27T08:03:02;0.70;99.90
21627;DHT22;10975;47.872;12.972;2022-11-27T08:05:29;0.70;99.90
21627;DHT22;10975;47.872;12.972;2022-11-27T08:07:58;0.60;99.90
21627;DHT22;10975;47.872;12.972;2022-11-27T08:10:24;0.60;99.90
21627;DHT22;10975;47.872;12.972;2022-11-27T08:12:51;0.60;99.90
21627;DHT22;10975;47.872;12.972;2022-11-27T08:15:18;0.60;99.90
21627;DHT22;10975;47.872;12.972;2022-11-27T08:17:44;0.60;99.90
21627;DHT22;10975;47.872;12.972;2022-11-27T08:20:11;0.60;99.90
21627;DHT22;10975;47.872;12.972;2022-11-27T08:22:38;0.60;99.90
21627;DHT22;10975;47.872;12.972;2022-11-27T08:25:05;0.60;99.90
21627;DHT22;10975;47.872;12.972;2022-11-27T08:27:31;0.60;99.90
21627;DHT22;10975;47.872;12.972;2022-11-27T08:29:59;0.70;99.90
21627;DHT22;10975;47.872;12.972;2022-11-27T08:32:25;0.80;99.90
21627;DHT22;10975;47.872;12.972;2022-11-27T08:34:52;0.80;99.90
21627;DHT22;10975;47.872;12.972;2022-11-27T08:37:19;0.90;99.90
21627;DHT22;10975;47.872;12.972;2022-11-27T08:39:47;0.90;99.90
21627;DHT22;10975;47.872;12.972;2022-11-27T08:42:14;1.00;99.90
21627;DHT22;10975;47.872;12.972;2022-11-27T08:44:40;0.90;99.90
21627;DHT22;10975;47.872;12.972;2022-11-27T08:47:08;1.00;99.90
21627;DHT22;10975;47.872;12.972;2022-11-27T08:49:34;1.20;99.90
21627;DHT22;10975;47.872;12.972;2022-11-27T08:52:06;1.20;99.90
21627;DHT22;10975;47.872;12.972;2022-11-27T08:54:32;1.20;99.90
21627;DHT22;10975;47.872;12.972;2022-11-27T08:56:59;1.30;99.90
21627;DHT22;10975;47.872;12.972;2022-11-27T08:59:25;1.30;99.90
21627;DHT22;10975;47.872;12.972;2022-11-27T09:01:52;1.40;99.90
21627;DHT22;10975;47.872;12.972;2022-11-27T09:04:19;1.40;99.90
21627;DHT22;10975;47.872;12.972;2022-11-27T09:06:45;1.40;99.90
21627;DHT22;10975;47.872;12.972;2022-11-27T09:09:14;1.50;99.90
21627;DHT22;10975;47.872;12.972;2022-11-27T09:11:41;1.50;99.90
21627;DHT22;10975;47.872;12.972;2022-11-27T09:14:08;1.60;99.90
21627;DHT22;10975;47.872;12.972;2022-11-27T09:16:35;1.70;99.90
21627;DHT22;10975;47.872;12.972;2022-11-27T09:19:01;1.80;99.90
21627;DHT22;10975;47.872;12.972;2022-11-27T09:21:29;1.70;99.90
21627;DHT22;10975;47.872;12.972;2022-11-27T09:23:56;1.70;99.90
21627;DHT22;10975;47.872;12.972;2022-11-27T09:26:23;1.70;99.90
21627;DHT22;10975;47.872;12.972;2022-11-27T09:28:52;1.70;99.90
21627;DHT22;10975;47.872;12.972;2022-11-27T09:31:19;1.80;99.90
21627;DHT22;10975;47.872;12.972;2022-11-27T09:33:46;1.90;99.90
21627;DHT22;10975;47.872;12.972;2022-11-27T09:36:14;1.90;99.90
21627;DHT22;10975;47.872;12.972;2022-11-27T09:38:41;1.90;99.90
21627;DHT22;10975;47.872;12.972;2022-11-27T09:43:55;2.10;99.90
21627;DHT22;10975;47.872;12.972;2022-11-27T09:46:25;2.20;99.90
21627;DHT22;10975;47.872;12.972;2022-11-27T09:48:54;2.40;99.90
21627;DHT22;10975;47.872;12.972;2022-11-27T09:56:39;2.80;99.90
21627;DHT22;10975;47.872;12.972;2022-11-27T09:59:11;2.90;99.90
21627;DHT22;10975;47.872;12.972;2022-11-27T10:01:39;3.00;99.90
21627;DHT22;10975;47.872;12.972;2022-11-27T10:07:18;2.70;99.90
21627;DHT22;10975;47.872;12.972;2022-11-27T10:12:54;2.50;99.90
21627;DHT22;10975;47.872;12.972;2022-11-27T10:20:42;2.60;99.90
21627;DHT22;10975;47.872;12.972;2022-11-27T10:25:59;2.80;99.90
21627;DHT22;10975;47.872;12.972;2022-11-27T10:30:54;2.80;99.90
21627;DHT22;10975;47.872;12.972;2022-11-27T10:33:24;2.80;99.90
21627;DHT22;10975;47.872;12.972;2022-11-27T10:35:53;2.80;99.90
21627;DHT22;10975;47.872;12.972;2022-11-27T10:38:21;2.80;99.90
21627;DHT22;10975;47.872;12.972;2022-11-27T10:40:51;2.80;99.90
21627;DHT22;10975;47.872;12.972;2022-11-27T10:43:22;2.80;99.90
21627;DHT22;10975;47.872;12.972;2022-11-27T10:48:35;2.80;99.90
21627;DHT22;10975;47.872;12.972;2022-11-27T10:51:01;2.90;99.90
21627;DHT22;10975;47.872;12.972;2022-11-27T10:53:30;2.90;99.90
21627;DHT22;10975;47.872;12.972;2022-11-27T11:01:14;3.10;99.90
21627;DHT22;10975;47.872;12.972;2022-11-27T11:03:42;3.00;99.90
21627;DHT22;10975;47.872;12.972;2022-11-27T11:06:15;3.00;99.90
21627;DHT22;10975;47.872;12.972;2022-11-27T11:08:48;3.10;99.90
21627;DHT22;10975;47.872;12.972;2022-11-27T11:11:23;3.10;99.90
21627;DHT22;10975;47.872;12.972;2022-11-27T11:13:50;3.20;99.90
21627;DHT22;10975;47.872;12.972;2022-11-27T11:16:18;3.10;99.90
21627;DHT22;10975;47.872;12.972;2022-11-27T11:18:51;3.10;99.90
21627;DHT22;10975;47.872;12.972;2022-11-27T11:21:22;3.20;99.90
21627;DHT22;10975;47.872;12.972;2022-11-27T11:23:58;3.20;99.90
21627;DHT22;10975;47.872;12.972;2022-11-27T11:26:27;3.30;99.90
21627;DHT22;10975;47.872;12.972;2022-11-27T11:28:55;3.40;99.90
21627;DHT22;10975;47.872;12.972;2022-11-27T11:31:28;3.50;99.90
21627;DHT22;10975;47.872;12.972;2022-11-27T11:34:00;3.50;99.90
21627;DHT22;10975;47.872;12.972;2022-11-27T11:36:28;3.50;99.90
21627;DHT22;10975;47.872;12.972;2022-11-27T11:39:03;3.50;99.90
21627;DHT22;10975;47.872;12.972;2022-11-27T11:44:35;3.50;99.90
21627;DHT22;10975;47.872;12.972;2022-11-27T11:47:02;3.50;99.90
21627;DHT22;10975;47.872;12.972;2022-11-27T11:49:31;3.60;99.90
21627;DHT22;10975;47.872;12.972;2022-11-27T11:54:46;3.70;99.90
21627;DHT22;10975;47.872;12.972;2022-11-27T12:18:23;4.00;99.90
21627;DHT22;10975;47.872;12.972;2022-11-27T12:23:45;4.10;99.90
21627;DHT22;10975;47.872;12.972;2022-11-27T12:36:02;4.30;99.90
21627;DHT22;10975;47.872;12.972;2022-11-27T12:38:45;4.40;99.90
21627;DHT22;10975;47.872;12.972;2022-11-27T12:44:01;4.30;99.90
21627;DHT22;10975;47.872;12.972;2022-11-27T12:46:41;4.30;99.90
21627;DHT22;10975;47.872;12.972;2022-11-27T12:49:18;4.30;99.90
21627;DHT22;10975;47.872;12.972;2022-11-27T12:57:14;4.60;99.90
21627;DHT22;10975;47.872;12.972;2022-11-27T12:59:47;4.60;99.90
21627;DHT22;10975;47.872;12.972;2022-11-27T13:02:24;4.50;99.90
21627;DHT22;10975;47.872;12.972;2022-11-27T13:04:57;4.60;99.90
21627;DHT22;10975;47.872;12.972;2022-11-27T13:18:31;4.60;99.90
21627;DHT22;10975;47.872;12.972;2022-11-27T13:21:00;4.60;99.90
21627;DHT22;10975;47.872;12.972;2022-11-27T13:23:31;4.60;99.90
21627;DHT22;10975;47.872;12.972;2022-11-27T13:26:00;4.60;99.90
21627;DHT22;10975;47.872;12.972;2022-11-27T13:28:37;4.60;99.90
21627;DHT22;10975;47.872;12.972;2022-11-27T13:31:05;4.70;99.90
21627;DHT22;10975;47.872;12.972;2022-11-27T13:33:40;4.70;99.90
21627;DHT22;10975;47.872;12.972;2022-11-27T13:36:16;4.70;99.90
21627;DHT22;10975;47.872;12.972;2022-11-27T13:38:43;4.70;99.90
21627;DHT22;10975;47.872;12.972;2022-11-27T13:41:18;4.70;99.90
21627;DHT22;10975;47.872;12.972;2022-11-27T13:43:45;4.70;99.90
21627;DHT22;10975;47.872;12.972;2022-11-27T13:46:21;4.70;99.90
21627;DHT22;10975;47.872;12.972;2022-11-27T13:49:24;4.70;99.90
21627;DHT22;10975;47.872;12.972;2022-11-27T13:51:41;4.70;99.90
21627;DHT22;10975;47.872;12.972;2022-11-27T13:54:11;4.60;99.90
21627;DHT22;10975;47.872;12.972;2022-11-27T13:56:39;4.60;99.90
21627;DHT22;10975;47.872;12.972;2022-11-27T14:01:39;4.60;99.90
21627;DHT22;10975;47.872;12.972;2022-11-27T14:04:06;4.60;99.90
21627;DHT22;10975;47.872;12.972;2022-11-27T14:06:34;4.60;99.90
21627;DHT22;10975;47.872;12.972;2022-11-27T14:09:03;4.60;99.90
21627;DHT22;10975;47.872;12.972;2022-11-27T14:14:14;4.50;99.90
21627;DHT22;10975;47.872;12.972;2022-11-27T14:16:41;4.50;99.90
21627;DHT22;10975;47.872;12.972;2022-11-27T14:21:56;4.40;99.90
21627;DHT22;10975;47.872;12.972;2022-11-27T14:26:58;4.50;99.90
21627;DHT22;10975;47.872;12.972;2022-11-27T14:29:27;4.50;99.90
21627;DHT22;10975;47.872;12.972;2022-11-27T14:31:55;4.40;99.90
21627;DHT22;10975;47.872;12.972;2022-11-27T14:34:27;4.40;99.90
21627;DHT22;10975;47.872;12.972;2022-11-27T14:36:54;4.40;99.90
21627;DHT22;10975;47.872;12.972;2022-11-27T14:39:21;4.40;99.90
21627;DHT22;10975;47.872;12.972;2022-11-27T14:41:55;4.30;99.90
21627;DHT22;10975;47.872;12.972;2022-11-27T14:44:22;4.30;99.90
21627;DHT22;10975;47.872;12.972;2022-11-27T14:46:49;4.30;99.90
21627;DHT22;10975;47.872;12.972;2022-11-27T14:49:20;4.30;99.90
21627;DHT22;10975;47.872;12.972;2022-11-27T14:51:47;4.40;99.90
21627;DHT22;10975;47.872;12.972;2022-11-27T14:54:17;4.40;99.90
21627;DHT22;10975;47.872;12.972;2022-11-27T14:56:45;4.50;99.90
21627;DHT22;10975;47.872;12.972;2022-11-27T14:59:12;4.50;99.90
21627;DHT22;10975;47.872;12.972;2022-11-27T15:01:40;4.50;99.90
21627;DHT22;10975;47.872;12.972;2022-11-27T15:06:53;4.40;99.90
21627;DHT22;10975;47.872;12.972;2022-11-27T15:09:21;4.50;99.90
21627;DHT22;10975;47.872;12.972;2022-11-27T15:15:06;4.40;99.90
21627;DHT22;10975;47.872;12.972;2022-11-27T15:17:34;4.30;99.90
21627;DHT22;10975;47.872;12.972;2022-11-27T15:20:08;4.30;99.90
21627;DHT22;10975;47.872;12.972;2022-11-27T15:22:37;4.30;99.90
21627;DHT22;10975;47.872;12.972;2022-11-27T15:25:05;4.30;99.90
21627;DHT22;10975;47.872;12.972;2022-11-27T15:27:43;4.30;99.90
21627;DHT22;10975;47.872;12.972;2022-11-27T15:30:11;4.30;99.90
21627;DHT22;10975;47.872;12.972;2022-11-27T15:32:43;4.40;99.90
21627;DHT22;10975;47.872;12.972;2022-11-27T15:35:34;4.40;99.90
21627;DHT22;10975;47.872;12.972;2022-11-27T15:38:08;4.40;99.90
21627;DHT22;10975;47.872;12.972;2022-11-27T15:40:37;4.40;99.90
21627;DHT22;10975;47.872;12.972;2022-11-27T15:43:13;4.30;99.90
21627;DHT22;10975;47.872;12.972;2022-11-27T15:45:41;4.30;99.90
21627;DHT22;10975;47.872;12.972;2022-11-27T15:48:15;4.40;99.90
21627;DHT22;10975;47.872;12.972;2022-11-27T15:50:42;4.40;99.90
21627;DHT22;10975;47.872;12.972;2022-11-27T15:53:16;4.40;99.90
21627;DHT22;10975;47.872;12.972;2022-11-27T15:55:43;4.40;99.90
21627;DHT22;10975;47.872;12.972;2022-11-27T15:58:10;4.40;99.90
21627;DHT22;10975;47.872;12.972;2022-11-27T16:00:36;4.40;99.90
21627;DHT22;10975;47.872;12.972;2022-11-27T16:03:03;4.40;99.90
21627;DHT22;10975;47.872;12.972;2022-11-27T16:05:30;4.40;99.90
21627;DHT22;10975;47.872;12.972;2022-11-27T16:07:56;4.40;99.90
21627;DHT22;10975;47.872;12.972;2022-11-27T16:10:23;4.40;99.90
21627;DHT22;10975;47.872;12.972;2022-11-27T16:12:50;4.40;99.90
21627;DHT22;10975;47.872;12.972;2022-11-27T16:15:21;4.40;99.90
21627;DHT22;10975;47.872;12.972;2022-11-27T16:17:49;4.40;99.90
21627;DHT22;10975;47.872;12.972;2022-11-27T16:20:16;4.40;99.90
21627;DHT22;10975;47.872;12.972;2022-11-27T16:22:43;4.50;99.90
21627;DHT22;10975;47.872;12.972;2022-11-27T16:25:09;4.50;99.90
21627;DHT22;10975;47.872;12.972;2022-11-27T16:27:37;4.50;99.90
21627;DHT22;10975;47.872;12.972;2022-11-27T16:30:05;4.50;99.90
21627;DHT22;10975;47.872;12.972;2022-11-27T16:32:44;4.50;99.90
21627;DHT22;10975;47.872;12.972;2022-11-27T16:35:11;4.50;99.90
21627;DHT22;10975;47.872;12.972;2022-11-27T16:37:39;4.50;99.90
21627;DHT22;10975;47.872;12.972;2022-11-27T16:40:06;4.50;99.90
21627;DHT22;10975;47.872;12.972;2022-11-27T16:42:33;4.50;99.90
21627;DHT22;10975;47.872;12.972;2022-11-27T16:44:59;4.50;99.90
21627;DHT22;10975;47.872;12.972;2022-11-27T16:47:26;4.40;99.90
21627;DHT22;10975;47.872;12.972;2022-11-27T16:49:59;4.40;99.90
21627;DHT22;10975;47.872;12.972;2022-11-27T16:52:26;4.40;99.90
21627;DHT22;10975;47.872;12.972;2022-11-27T16:54:53;4.40;99.90
21627;DHT22;10975;47.872;12.972;2022-11-27T16:57:19;4.40;99.90
21627;DHT22;10975;47.872;12.972;2022-11-27T16:59:47;4.40;99.90
21627;DHT22;10975;47.872;12.972;2022-11-27T17:02:16;4.40;99.90
21627;DHT22;10975;47.872;12.972;2022-11-27T17:04:42;4.30;99.90
21627;DHT22;10975;47.872;12.972;2022-11-27T17:07:09;4.30;99.90
21627;DHT22;10975;47.872;12.972;2022-11-27T17:09:36;4.40;99.90
21627;DHT22;10975;47.872;12.972;2022-11-27T17:12:04;4.40;99.90
21627;DHT22;10975;47.872;12.972;2022-11-27T17:14:30;4.40;99.90
21627;DHT22;10975;47.872;12.972;2022-11-27T17:16:57;4.40;99.90
21627;DHT22;10975;47.872;12.972;2022-11-27T17:19:24;4.40;99.90
21627;DHT22;10975;47.872;12.972;2022-11-27T17:21:52;4.40;99.90
21627;DHT22;10975;47.872;12.972;2022-11-27T17:24:19;4.40;99.90
21627;DHT22;10975;47.872;12.972;2022-11-27T17:26:47;4.40;99.90
21627;DHT22;10975;47.872;12.972;2022-11-27T17:29:15;4.30;99.90
21627;DHT22;10975;47.872;12.972;2022-11-27T17:31:42;4.30;99.90
21627;DHT22;10975;47.872;12.972;2022-11-27T17:34:10;4.20;99.90
21627;DHT22;10975;47.872;12.972;2022-11-27T17:36:37;4.20;99.90
21627;DHT22;10975;47.872;12.972;2022-11-27T17:39:04;4.20;99.90
21627;DHT22;10975;47.872;12.972;2022-11-27T17:41:31;4.20;99.90
21627;DHT22;10975;47.872;12.972;2022-11-27T17:43:58;4.20;99.90
21627;DHT22;10975;47.872;12.972;2022-11-27T17:46:25;4.20;99.90
21627;DHT22;10975;47.872;12.972;2022-11-27T17:48:53;4.10;99.90
21627;DHT22;10975;47.872;12.972;2022-11-27T17:51:20;4.10;99.90